sensor_id;sensor_type;location;lat;lon;timestamp;P1;durP1;ratioP1;P2;durP2;ratioP2
41233;SDS011;26968;42.686;23.352;2023-04-16T00:01:58;6.70;;;3.30;;
41233;SDS011;26968;42.686;23.352;2023-04-16T00:04:23;16.52;;;3.40;;
41233;SDS011;26968;42.686;23.352;2023-04-16T00:06:49;11.35;;;3.50;;
41233;SDS011;26968;42.686;23.352;2023-04-16T00:09:14;10.45;;;3.33;;
41233;SDS011;26968;42.686;23.352;2023-04-16T00:11:40;8.48;;;4.07;;
41233;SDS011;26968;42.686;23.352;2023-04-16T00:14:05;15.63;;;3.40;;
41233;SDS011;26968;42.686;23.352;2023-04-16T00:16:31;8.02;;;3.42;;
41233;SDS011;26968;42.686;23.352;2023-04-16T00:18:56;7.47;;;3.40;;
41233;SDS011;26968;42.686;23.352;2023-04-16T00:21:21;6.22;;;3.50;;
41233;SDS011;26968;42.686;23.352;2023-04-16T00:23:47;12.20;;;3.45;;
41233;SDS011;26968;42.686;23.352;2023-04-16T00:26:12;9.77;;;3.90;;
41233;SDS011;26968;42.686;23.352;2023-04-16T00:28:38;10.43;;;3.78;;
41233;SDS011;26968;42.686;23.352;2023-04-16T00:31:03;11.00;;;3.60;;
41233;SDS011;26968;42.686;23.352;2023-04-16T00:33:29;8.15;;;3.40;;
41233;SDS011;26968;42.686;23.352;2023-04-16T00:35:54;11.90;;;4.50;;
41233;SDS011;26968;42.686;23.352;2023-04-16T00:38:20;10.18;;;4.20;;
41233;SDS011;26968;42.686;23.352;2023-04-16T00:40:46;7.05;;;4.03;;
41233;SDS011;26968;42.686;23.352;2023-04-16T00:43:18;9.93;;;4.28;;
41233;SDS011;26968;42.686;23.352;2023-04-16T00:45:45;10.65;;;4.28;;
41233;SDS011;26968;42.686;23.352;2023-04-16T00:48:11;14.07;;;4.10;;
41233;SDS011;26968;42.686;23.352;2023-04-16T00:50:36;10.02;;;3.67;;
41233;SDS011;26968;42.686;23.352;2023-04-16T00:53:02;9.77;;;3.80;;
41233;SDS011;26968;42.686;23.352;2023-04-16T00:55:28;11.43;;;3.80;;
41233;SDS011;26968;42.686;23.352;2023-04-16T00:57:53;17.77;;;7.30;;
41233;SDS011;26968;42.686;23.352;2023-04-16T01:00:19;23.35;;;10.13;;
41233;SDS011;26968;42.686;23.352;2023-04-16T01:02:45;23.25;;;9.10;;
41233;SDS011;26968;42.686;23.352;2023-04-16T01:05:10;13.85;;;7.93;;
41233;SDS011;26968;42.686;23.352;2023-04-16T01:07:36;18.15;;;8.63;;
41233;SDS011;26968;42.686;23.352;2023-04-16T01:10:02;13.75;;;8.15;;
41233;SDS011;26968;42.686;23.352;2023-04-16T01:12:28;17.42;;;8.30;;
41233;SDS011;26968;42.686;23.352;2023-04-16T01:14:53;15.23;;;7.47;;
41233;SDS011;26968;42.686;23.352;2023-04-16T01:17:19;15.88;;;7.60;;
41233;SDS011;26968;42.686;23.352;2023-04-16T01:19:44;18.67;;;6.65;;
41233;SDS011;26968;42.686;23.352;2023-04-16T01:22:10;16.48;;;6.90;;
41233;SDS011;26968;42.686;23.352;2023-04-16T01:24:35;14.50;;;6.97;;
41233;SDS011;26968;42.686;23.352;2023-04-16T01:27:00;12.30;;;6.85;;
41233;SDS011;26968;42.686;23.352;2023-04-16T01:29:26;16.45;;;7.32;;
41233;SDS011;26968;42.686;23.352;2023-04-16T01:31:51;12.88;;;6.88;;
41233;SDS011;26968;42.686;23.352;2023-04-16T01:34:18;21.17;;;7.20;;
41233;SDS011;26968;42.686;23.352;2023-04-16T01:36:43;13.45;;;6.80;;
41233;SDS011;26968;42.686;23.352;2023-04-16T01:39:09;13.65;;;6.93;;
41233;SDS011;26968;42.686;23.352;2023-04-16T01:41:39;18.30;;;6.78;;
41233;SDS011;26968;42.686;23.352;2023-04-16T01:44:05;14.23;;;6.13;;
41233;SDS011;26968;42.686;23.352;2023-04-16T01:46:31;14.07;;;6.38;;
41233;SDS011;26968;42.686;23.352;2023-04-16T01:48:57;17.63;;;6.10;;
41233;SDS011;26968;42.686;23.352;2023-04-16T01:51:23;18.13;;;5.78;;
41233;SDS011;26968;42.686;23.352;2023-04-16T01:53:49;13.88;;;6.38;;
41233;SDS011;26968;42.686;23.352;2023-04-16T01:56:15;14.38;;;6.65;;
41233;SDS011;26968;42.686;23.352;2023-04-16T01:58:41;17.98;;;6.30;;
41233;SDS011;26968;42.686;23.352;2023-04-16T02:01:07;10.63;;;6.13;;
41233;SDS011;26968;42.686;23.352;2023-04-16T02:03:33;13.77;;;5.75;;
41233;SDS011;26968;42.686;23.352;2023-04-16T02:05:58;19.77;;;6.93;;
41233;SDS011;26968;42.686;23.352;2023-04-16T02:08:25;18.00;;;6.72;;
41233;SDS011;26968;42.686;23.352;2023-04-16T02:10:50;17.00;;;6.90;;
41233;SDS011;26968;42.686;23.352;2023-04-16T02:13:16;23.05;;;7.72;;
41233;SDS011;26968;42.686;23.352;2023-04-16T02:15:45;22.63;;;7.57;;
41233;SDS011;26968;42.686;23.352;2023-04-16T02:18:11;25.65;;;7.60;;
41233;SDS011;26968;42.686;23.352;2023-04-16T02:20:40;16.00;;;6.93;;
41233;SDS011;26968;42.686;23.352;2023-04-16T02:23:07;19.20;;;7.70;;
41233;SDS011;26968;42.686;23.352;2023-04-16T02:25:37;19.25;;;6.60;;
41233;SDS011;26968;42.686;23.352;2023-04-16T02:28:09;22.13;;;8.25;;
41233;SDS011;26968;42.686;23.352;2023-04-16T02:30:37;13.70;;;7.22;;
41233;SDS011;26968;42.686;23.352;2023-04-16T02:33:03;18.90;;;7.45;;
41233;SDS011;26968;42.686;23.352;2023-04-16T02:35:33;14.05;;;7.10;;
41233;SDS011;26968;42.686;23.352;2023-04-16T02:37:59;14.90;;;6.50;;
41233;SDS011;26968;42.686;23.352;2023-04-16T02:40:25;14.73;;;7.13;;
41233;SDS011;26968;42.686;23.352;2023-04-16T02:42:51;18.30;;;7.30;;
41233;SDS011;26968;42.686;23.352;2023-04-16T02:45:17;18.42;;;7.25;;
41233;SDS011;26968;42.686;23.352;2023-04-16T02:47:43;15.75;;;6.05;;
41233;SDS011;26968;42.686;23.352;2023-04-16T02:50:08;16.25;;;6.53;;
41233;SDS011;26968;42.686;23.352;2023-04-16T02:52:34;18.08;;;5.80;;
41233;SDS011;26968;42.686;23.352;2023-04-16T02:55:00;15.35;;;6.55;;
41233;SDS011;26968;42.686;23.352;2023-04-16T02:57:25;11.93;;;5.80;;
41233;SDS011;26968;42.686;23.352;2023-04-16T02:59:51;12.50;;;5.85;;
41233;SDS011;26968;42.686;23.352;2023-04-16T03:02:16;16.55;;;6.35;;
41233;SDS011;26968;42.686;23.352;2023-04-16T03:04:41;11.88;;;5.65;;
41233;SDS011;26968;42.686;23.352;2023-04-16T03:07:07;14.48;;;4.95;;
41233;SDS011;26968;42.686;23.352;2023-04-16T03:09:33;9.93;;;4.47;;
41233;SDS011;26968;42.686;23.352;2023-04-16T03:11:59;11.45;;;4.47;;
41233;SDS011;26968;42.686;23.352;2023-04-16T03:14:28;12.45;;;3.60;;
41233;SDS011;26968;42.686;23.352;2023-04-16T03:16:54;10.82;;;3.80;;
41233;SDS011;26968;42.686;23.352;2023-04-16T03:19:20;8.10;;;3.58;;
41233;SDS011;26968;42.686;23.352;2023-04-16T03:21:46;8.70;;;3.40;;
41233;SDS011;26968;42.686;23.352;2023-04-16T03:24:12;6.47;;;3.25;;
41233;SDS011;26968;42.686;23.352;2023-04-16T03:26:37;7.53;;;2.80;;
41233;SDS011;26968;42.686;23.352;2023-04-16T03:29:03;6.72;;;2.67;;
41233;SDS011;26968;42.686;23.352;2023-04-16T03:31:28;4.35;;;2.75;;
41233;SDS011;26968;42.686;23.352;2023-04-16T03:33:54;8.75;;;3.05;;
41233;SDS011;26968;42.686;23.352;2023-04-16T03:36:20;10.45;;;3.90;;
41233;SDS011;26968;42.686;23.352;2023-04-16T03:38:46;8.98;;;3.95;;
41233;SDS011;26968;42.686;23.352;2023-04-16T03:41:12;10.77;;;4.30;;
41233;SDS011;26968;42.686;23.352;2023-04-16T03:43:37;11.23;;;3.90;;
41233;SDS011;26968;42.686;23.352;2023-04-16T03:46:03;15.15;;;5.35;;
41233;SDS011;26968;42.686;23.352;2023-04-16T03:48:28;15.75;;;6.75;;
41233;SDS011;26968;42.686;23.352;2023-04-16T03:50:54;15.43;;;7.97;;
41233;SDS011;26968;42.686;23.352;2023-04-16T03:53:19;21.17;;;8.82;;
41233;SDS011;26968;42.686;23.352;2023-04-16T03:55:47;22.35;;;8.60;;
41233;SDS011;26968;42.686;23.352;2023-04-16T03:58:14;26.10;;;9.77;;
41233;SDS011;26968;42.686;23.352;2023-04-16T04:00:40;24.40;;;9.10;;
41233;SDS011;26968;42.686;23.352;2023-04-16T04:03:07;19.67;;;9.45;;
41233;SDS011;26968;42.686;23.352;2023-04-16T04:05:35;24.42;;;8.88;;
41233;SDS011;26968;42.686;23.352;2023-04-16T04:08:04;18.05;;;8.05;;
41233;SDS011;26968;42.686;23.352;2023-04-16T04:10:33;17.38;;;8.27;;
41233;SDS011;26968;42.686;23.352;2023-04-16T04:13:01;17.23;;;8.20;;
41233;SDS011;26968;42.686;23.352;2023-04-16T04:15:28;15.82;;;7.57;;
41233;SDS011;26968;42.686;23.352;2023-04-16T04:17:53;19.77;;;7.07;;
41233;SDS011;26968;42.686;23.352;2023-04-16T04:20:19;13.38;;;6.38;;
41233;SDS011;26968;42.686;23.352;2023-04-16T04:22:44;21.55;;;7.85;;
41233;SDS011;26968;42.686;23.352;2023-04-16T04:25:10;16.95;;;6.60;;
41233;SDS011;26968;42.686;23.352;2023-04-16T04:27:35;13.60;;;7.22;;
41233;SDS011;26968;42.686;23.352;2023-04-16T04:30:01;21.45;;;7.80;;
41233;SDS011;26968;42.686;23.352;2023-04-16T04:32:28;16.90;;;7.60;;
41233;SDS011;26968;42.686;23.352;2023-04-16T04:34:54;17.35;;;7.82;;
41233;SDS011;26968;42.686;23.352;2023-04-16T04:37:20;15.35;;;6.65;;
41233;SDS011;26968;42.686;23.352;2023-04-16T04:39:45;21.73;;;6.82;;
41233;SDS011;26968;42.686;23.352;2023-04-16T04:42:11;15.07;;;6.18;;
41233;SDS011;26968;42.686;23.352;2023-04-16T04:44:36;13.80;;;6.78;;
41233;SDS011;26968;42.686;23.352;2023-04-16T04:47:01;15.18;;;6.72;;
41233;SDS011;26968;42.686;23.352;2023-04-16T04:49:27;16.05;;;6.53;;
41233;SDS011;26968;42.686;23.352;2023-04-16T04:51:52;15.70;;;6.63;;
41233;SDS011;26968;42.686;23.352;2023-04-16T04:54:18;13.18;;;6.50;;
41233;SDS011;26968;42.686;23.352;2023-04-16T04:56:43;14.35;;;5.88;;
41233;SDS011;26968;42.686;23.352;2023-04-16T04:59:11;16.20;;;6.38;;
41233;SDS011;26968;42.686;23.352;2023-04-16T05:01:37;17.25;;;6.35;;
41233;SDS011;26968;42.686;23.352;2023-04-16T05:04:03;11.50;;;5.20;;
41233;SDS011;26968;42.686;23.352;2023-04-16T05:06:28;24.27;;;6.28;;
41233;SDS011;26968;42.686;23.352;2023-04-16T05:08:54;12.48;;;5.50;;
41233;SDS011;26968;42.686;23.352;2023-04-16T05:11:19;16.73;;;5.25;;
41233;SDS011;26968;42.686;23.352;2023-04-16T05:13:45;13.82;;;5.80;;
41233;SDS011;26968;42.686;23.352;2023-04-16T05:16:10;17.65;;;6.38;;
41233;SDS011;26968;42.686;23.352;2023-04-16T05:18:36;21.77;;;7.68;;
41233;SDS011;26968;42.686;23.352;2023-04-16T05:21:01;16.02;;;8.20;;
41233;SDS011;26968;42.686;23.352;2023-04-16T05:23:27;21.60;;;7.30;;
41233;SDS011;26968;42.686;23.352;2023-04-16T05:25:53;19.17;;;6.95;;
41233;SDS011;26968;42.686;23.352;2023-04-16T05:28:18;21.30;;;6.57;;
41233;SDS011;26968;42.686;23.352;2023-04-16T05:30:43;25.67;;;6.95;;
41233;SDS011;26968;42.686;23.352;2023-04-16T05:33:09;24.15;;;6.50;;
41233;SDS011;26968;42.686;23.352;2023-04-16T05:35:35;18.60;;;6.32;;
41233;SDS011;26968;42.686;23.352;2023-04-16T05:38:01;11.57;;;6.00;;
41233;SDS011;26968;42.686;23.352;2023-04-16T05:40:28;14.70;;;6.15;;
41233;SDS011;26968;42.686;23.352;2023-04-16T05:42:54;13.65;;;5.90;;
41233;SDS011;26968;42.686;23.352;2023-04-16T05:45:19;17.90;;;6.13;;
41233;SDS011;26968;42.686;23.352;2023-04-16T05:47:44;23.08;;;8.15;;
41233;SDS011;26968;42.686;23.352;2023-04-16T05:50:10;18.73;;;8.15;;
41233;SDS011;26968;42.686;23.352;2023-04-16T05:52:35;16.25;;;6.15;;
41233;SDS011;26968;42.686;23.352;2023-04-16T05:55:01;16.83;;;7.53;;
41233;SDS011;26968;42.686;23.352;2023-04-16T05:57:29;25.63;;;6.68;;
41233;SDS011;26968;42.686;23.352;2023-04-16T05:59:55;15.45;;;6.05;;
41233;SDS011;26968;42.686;23.352;2023-04-16T06:02:20;11.93;;;6.88;;
41233;SDS011;26968;42.686;23.352;2023-04-16T06:04:46;17.48;;;7.22;;
41233;SDS011;26968;42.686;23.352;2023-04-16T06:07:11;16.23;;;6.63;;
41233;SDS011;26968;42.686;23.352;2023-04-16T06:09:37;18.25;;;6.63;;
41233;SDS011;26968;42.686;23.352;2023-04-16T06:12:02;14.07;;;6.85;;
41233;SDS011;26968;42.686;23.352;2023-04-16T06:14:28;13.93;;;6.72;;
41233;SDS011;26968;42.686;23.352;2023-04-16T06:16:53;16.35;;;6.30;;
41233;SDS011;26968;42.686;23.352;2023-04-16T06:19:19;16.65;;;6.53;;
41233;SDS011;26968;42.686;23.352;2023-04-16T06:21:44;23.33;;;6.72;;
41233;SDS011;26968;42.686;23.352;2023-04-16T06:24:10;18.52;;;8.23;;
41233;SDS011;26968;42.686;23.352;2023-04-16T06:26:35;18.60;;;7.80;;
41233;SDS011;26968;42.686;23.352;2023-04-16T06:29:01;20.58;;;8.27;;
41233;SDS011;26968;42.686;23.352;2023-04-16T06:31:26;22.85;;;7.22;;
41233;SDS011;26968;42.686;23.352;2023-04-16T06:33:51;10.82;;;6.10;;
41233;SDS011;26968;42.686;23.352;2023-04-16T06:36:17;11.68;;;6.13;;
41233;SDS011;26968;42.686;23.352;2023-04-16T06:38:42;12.02;;;6.07;;
41233;SDS011;26968;42.686;23.352;2023-04-16T06:41:08;19.10;;;6.25;;
41233;SDS011;26968;42.686;23.352;2023-04-16T06:43:33;12.60;;;5.97;;
41233;SDS011;26968;42.686;23.352;2023-04-16T06:45:59;12.50;;;5.28;;
41233;SDS011;26968;42.686;23.352;2023-04-16T06:48:25;16.77;;;6.10;;
41233;SDS011;26968;42.686;23.352;2023-04-16T06:50:51;11.95;;;5.20;;
41233;SDS011;26968;42.686;23.352;2023-04-16T06:53:16;15.65;;;5.32;;
41233;SDS011;26968;42.686;23.352;2023-04-16T06:55:42;9.80;;;4.80;;
41233;SDS011;26968;42.686;23.352;2023-04-16T06:58:07;13.52;;;5.28;;
41233;SDS011;26968;42.686;23.352;2023-04-16T07:00:33;9.63;;;4.38;;
41233;SDS011;26968;42.686;23.352;2023-04-16T07:02:59;9.70;;;3.83;;
41233;SDS011;26968;42.686;23.352;2023-04-16T07:05:25;6.25;;;3.45;;
41233;SDS011;26968;42.686;23.352;2023-04-16T07:07:51;9.38;;;4.03;;
41233;SDS011;26968;42.686;23.352;2023-04-16T07:10:16;10.63;;;4.72;;
41233;SDS011;26968;42.686;23.352;2023-04-16T07:12:42;10.80;;;4.97;;
41233;SDS011;26968;42.686;23.352;2023-04-16T07:15:08;14.30;;;5.65;;
41233;SDS011;26968;42.686;23.352;2023-04-16T07:17:34;16.70;;;4.60;;
41233;SDS011;26968;42.686;23.352;2023-04-16T07:19:59;14.88;;;5.22;;
41233;SDS011;26968;42.686;23.352;2023-04-16T07:22:25;13.82;;;4.55;;
41233;SDS011;26968;42.686;23.352;2023-04-16T07:24:50;10.05;;;4.90;;
41233;SDS011;26968;42.686;23.352;2023-04-16T07:27:15;12.35;;;4.53;;
41233;SDS011;26968;42.686;23.352;2023-04-16T07:29:41;11.10;;;4.00;;
41233;SDS011;26968;42.686;23.352;2023-04-16T07:32:06;9.75;;;4.20;;
41233;SDS011;26968;42.686;23.352;2023-04-16T07:34:32;14.23;;;4.03;;
41233;SDS011;26968;42.686;23.352;2023-04-16T07:36:57;8.75;;;4.00;;
41233;SDS011;26968;42.686;23.352;2023-04-16T07:39:23;10.32;;;4.32;;
41233;SDS011;26968;42.686;23.352;2023-04-16T07:41:48;9.02;;;3.78;;
41233;SDS011;26968;42.686;23.352;2023-04-16T07:44:14;8.50;;;3.95;;
41233;SDS011;26968;42.686;23.352;2023-04-16T07:46:39;9.18;;;3.58;;
41233;SDS011;26968;42.686;23.352;2023-04-16T07:49:05;8.02;;;3.42;;
41233;SDS011;26968;42.686;23.352;2023-04-16T07:51:30;11.63;;;3.90;;
41233;SDS011;26968;42.686;23.352;2023-04-16T07:53:57;12.90;;;3.70;;
41233;SDS011;26968;42.686;23.352;2023-04-16T07:56:23;11.70;;;3.17;;
41233;SDS011;26968;42.686;23.352;2023-04-16T07:58:48;12.40;;;3.25;;
41233;SDS011;26968;42.686;23.352;2023-04-16T08:01:14;8.50;;;3.50;;
41233;SDS011;26968;42.686;23.352;2023-04-16T08:03:39;10.93;;;3.20;;
41233;SDS011;26968;42.686;23.352;2023-04-16T08:06:05;10.00;;;3.85;;
41233;SDS011;26968;42.686;23.352;2023-04-16T08:08:31;11.10;;;3.88;;
41233;SDS011;26968;42.686;23.352;2023-04-16T08:10:56;14.02;;;3.88;;
41233;SDS011;26968;42.686;23.352;2023-04-16T08:13:22;13.00;;;3.20;;
41233;SDS011;26968;42.686;23.352;2023-04-16T08:15:48;8.48;;;3.58;;
41233;SDS011;26968;42.686;23.352;2023-04-16T08:18:13;12.40;;;3.78;;
41233;SDS011;26968;42.686;23.352;2023-04-16T08:20:39;11.77;;;3.72;;
41233;SDS011;26968;42.686;23.352;2023-04-16T08:23:05;11.68;;;3.72;;
41233;SDS011;26968;42.686;23.352;2023-04-16T08:25:31;11.23;;;2.78;;
41233;SDS011;26968;42.686;23.352;2023-04-16T08:27:56;13.02;;;3.90;;
41233;SDS011;26968;42.686;23.352;2023-04-16T08:30:22;11.27;;;3.50;;
41233;SDS011;26968;42.686;23.352;2023-04-16T08:32:47;8.70;;;2.88;;
41233;SDS011;26968;42.686;23.352;2023-04-16T08:35:13;6.55;;;2.95;;
41233;SDS011;26968;42.686;23.352;2023-04-16T08:37:39;14.93;;;2.30;;
41233;SDS011;26968;42.686;23.352;2023-04-16T08:40:04;15.52;;;3.05;;
41233;SDS011;26968;42.686;23.352;2023-04-16T08:42:32;7.20;;;2.60;;
41233;SDS011;26968;42.686;23.352;2023-04-16T08:45:11;7.05;;;2.45;;
41233;SDS011;26968;42.686;23.352;2023-04-16T08:47:39;9.52;;;2.60;;
41233;SDS011;26968;42.686;23.352;2023-04-16T08:50:05;10.88;;;3.28;;
41233;SDS011;26968;42.686;23.352;2023-04-16T08:52:36;10.38;;;3.45;;
41233;SDS011;26968;42.686;23.352;2023-04-16T08:55:11;9.85;;;3.28;;
41233;SDS011;26968;42.686;23.352;2023-04-16T08:57:46;11.68;;;3.60;;
41233;SDS011;26968;42.686;23.352;2023-04-16T09:00:13;9.38;;;3.55;;
41233;SDS011;26968;42.686;23.352;2023-04-16T09:02:40;8.93;;;3.40;;
41233;SDS011;26968;42.686;23.352;2023-04-16T09:05:06;11.15;;;3.45;;
41233;SDS011;26968;42.686;23.352;2023-04-16T09:07:33;6.70;;;2.75;;
41233;SDS011;26968;42.686;23.352;2023-04-16T09:10:00;14.43;;;4.32;;
41233;SDS011;26968;42.686;23.352;2023-04-16T09:12:26;10.52;;;2.92;;
41233;SDS011;26968;42.686;23.352;2023-04-16T09:14:51;8.32;;;2.70;;
41233;SDS011;26968;42.686;23.352;2023-04-16T09:17:17;8.57;;;3.15;;
41233;SDS011;26968;42.686;23.352;2023-04-16T09:19:46;7.35;;;2.78;;
41233;SDS011;26968;42.686;23.352;2023-04-16T09:22:12;11.48;;;3.00;;
41233;SDS011;26968;42.686;23.352;2023-04-16T09:24:37;7.88;;;2.72;;
41233;SDS011;26968;42.686;23.352;2023-04-16T09:27:03;8.77;;;2.65;;
41233;SDS011;26968;42.686;23.352;2023-04-16T09:29:35;10.82;;;2.85;;
41233;SDS011;26968;42.686;23.352;2023-04-16T09:32:06;7.70;;;2.47;;
41233;SDS011;26968;42.686;23.352;2023-04-16T09:34:33;7.07;;;3.53;;
41233;SDS011;26968;42.686;23.352;2023-04-16T09:39:41;9.88;;;3.35;;
41233;SDS011;26968;42.686;23.352;2023-04-16T09:42:08;10.75;;;3.10;;
41233;SDS011;26968;42.686;23.352;2023-04-16T09:44:34;8.25;;;2.92;;
41233;SDS011;26968;42.686;23.352;2023-04-16T09:47:07;7.47;;;3.10;;
41233;SDS011;26968;42.686;23.352;2023-04-16T09:49:42;8.95;;;3.45;;
41233;SDS011;26968;42.686;23.352;2023-04-16T09:52:29;9.07;;;3.47;;
41233;SDS011;26968;42.686;23.352;2023-04-16T09:54:54;9.00;;;2.63;;
41233;SDS011;26968;42.686;23.352;2023-04-16T09:57:21;8.40;;;2.63;;
41233;SDS011;26968;42.686;23.352;2023-04-16T10:00:08;8.25;;;2.60;;
41233;SDS011;26968;42.686;23.352;2023-04-16T10:02:34;6.75;;;2.65;;
41233;SDS011;26968;42.686;23.352;2023-04-16T10:05:02;8.15;;;2.92;;
41233;SDS011;26968;42.686;23.352;2023-04-16T10:07:28;5.57;;;2.50;;
41233;SDS011;26968;42.686;23.352;2023-04-16T10:09:58;6.95;;;2.38;;
41233;SDS011;26968;42.686;23.352;2023-04-16T10:12:23;6.15;;;2.53;;
41233;SDS011;26968;42.686;23.352;2023-04-16T10:14:49;15.50;;;2.80;;
41233;SDS011;26968;42.686;23.352;2023-04-16T10:17:15;6.40;;;2.67;;
41233;SDS011;26968;42.686;23.352;2023-04-16T10:19:40;5.88;;;2.47;;
41233;SDS011;26968;42.686;23.352;2023-04-16T10:22:06;11.07;;;2.42;;
41233;SDS011;26968;42.686;23.352;2023-04-16T10:24:32;7.63;;;2.90;;
41233;SDS011;26968;42.686;23.352;2023-04-16T10:26:59;8.07;;;2.92;;
41233;SDS011;26968;42.686;23.352;2023-04-16T10:29:25;7.80;;;2.55;;
41233;SDS011;26968;42.686;23.352;2023-04-16T10:31:52;11.02;;;3.30;;
41233;SDS011;26968;42.686;23.352;2023-04-16T10:34:19;7.07;;;2.30;;
41233;SDS011;26968;42.686;23.352;2023-04-16T10:36:49;7.65;;;2.58;;
41233;SDS011;26968;42.686;23.352;2023-04-16T10:39:22;13.38;;;2.90;;
41233;SDS011;26968;42.686;23.352;2023-04-16T10:41:49;7.53;;;2.70;;
41233;SDS011;26968;42.686;23.352;2023-04-16T10:44:16;7.22;;;2.50;;
41233;SDS011;26968;42.686;23.352;2023-04-16T10:46:45;9.95;;;2.60;;
41233;SDS011;26968;42.686;23.352;2023-04-16T10:49:18;5.53;;;2.67;;
41233;SDS011;26968;42.686;23.352;2023-04-16T10:51:54;5.75;;;2.13;;
41233;SDS011;26968;42.686;23.352;2023-04-16T10:54:36;10.57;;;2.38;;
41233;SDS011;26968;42.686;23.352;2023-04-16T10:57:03;5.28;;;1.90;;
41233;SDS011;26968;42.686;23.352;2023-04-16T10:59:30;10.18;;;2.25;;
41233;SDS011;26968;42.686;23.352;2023-04-16T11:01:59;7.13;;;2.30;;
41233;SDS011;26968;42.686;23.352;2023-04-16T11:04:32;6.63;;;2.35;;
41233;SDS011;26968;42.686;23.352;2023-04-16T11:12:35;5.25;;;2.05;;
41233;SDS011;26968;42.686;23.352;2023-04-16T11:15:11;5.70;;;2.08;;
41233;SDS011;26968;42.686;23.352;2023-04-16T11:17:42;7.60;;;2.35;;
41233;SDS011;26968;42.686;23.352;2023-04-16T11:22:41;7.35;;;2.40;;
41233;SDS011;26968;42.686;23.352;2023-04-16T11:25:09;7.00;;;2.10;;
41233;SDS011;26968;42.686;23.352;2023-04-16T11:27:34;5.78;;;1.90;;
41233;SDS011;26968;42.686;23.352;2023-04-16T11:30:00;11.38;;;2.35;;
41233;SDS011;26968;42.686;23.352;2023-04-16T11:32:30;9.23;;;2.00;;
41233;SDS011;26968;42.686;23.352;2023-04-16T11:34:57;8.40;;;1.98;;
41233;SDS011;26968;42.686;23.352;2023-04-16T11:37:34;3.25;;;1.52;;
41233;SDS011;26968;42.686;23.352;2023-04-16T11:40:01;9.75;;;2.13;;
41233;SDS011;26968;42.686;23.352;2023-04-16T11:42:35;8.50;;;2.25;;
41233;SDS011;26968;42.686;23.352;2023-04-16T11:45:02;6.20;;;1.77;;
41233;SDS011;26968;42.686;23.352;2023-04-16T11:47:28;8.00;;;2.33;;
41233;SDS011;26968;42.686;23.352;2023-04-16T11:49:55;10.02;;;2.35;;
41233;SDS011;26968;42.686;23.352;2023-04-16T11:52:25;4.95;;;1.92;;
41233;SDS011;26968;42.686;23.352;2023-04-16T11:54:51;6.15;;;1.85;;
41233;SDS011;26968;42.686;23.352;2023-04-16T11:57:27;10.07;;;2.22;;
41233;SDS011;26968;42.686;23.352;2023-04-16T11:59:53;11.40;;;2.53;;
41233;SDS011;26968;42.686;23.352;2023-04-16T12:05:04;5.78;;;2.15;;
41233;SDS011;26968;42.686;23.352;2023-04-16T12:07:42;7.85;;;2.38;;
41233;SDS011;26968;42.686;23.352;2023-04-16T12:10:09;7.22;;;2.00;;
41233;SDS011;26968;42.686;23.352;2023-04-16T12:12:34;5.07;;;2.10;;
41233;SDS011;26968;42.686;23.352;2023-04-16T12:15:01;6.22;;;2.03;;
41233;SDS011;26968;42.686;23.352;2023-04-16T12:17:28;3.70;;;1.85;;
41233;SDS011;26968;42.686;23.352;2023-04-16T12:19:55;5.03;;;1.67;;
41233;SDS011;26968;42.686;23.352;2023-04-16T12:22:29;8.82;;;2.08;;
41233;SDS011;26968;42.686;23.352;2023-04-16T12:25:02;4.75;;;2.00;;
41233;SDS011;26968;42.686;23.352;2023-04-16T12:30:15;5.18;;;1.70;;
41233;SDS011;26968;42.686;23.352;2023-04-16T12:32:42;6.53;;;2.20;;
41233;SDS011;26968;42.686;23.352;2023-04-16T12:35:09;6.38;;;1.90;;
41233;SDS011;26968;42.686;23.352;2023-04-16T12:37:36;6.57;;;1.50;;
41233;SDS011;26968;42.686;23.352;2023-04-16T12:40:02;6.43;;;1.90;;
41233;SDS011;26968;42.686;23.352;2023-04-16T12:42:29;7.18;;;2.25;;
41233;SDS011;26968;42.686;23.352;2023-04-16T12:45:00;4.63;;;1.70;;
41233;SDS011;26968;42.686;23.352;2023-04-16T12:47:29;9.70;;;1.60;;
41233;SDS011;26968;42.686;23.352;2023-04-16T12:49:58;7.53;;;2.17;;
41233;SDS011;26968;42.686;23.352;2023-04-16T12:52:23;5.57;;;2.08;;
41233;SDS011;26968;42.686;23.352;2023-04-16T12:54:50;7.03;;;2.35;;
41233;SDS011;26968;42.686;23.352;2023-04-16T12:57:16;6.72;;;1.88;;
41233;SDS011;26968;42.686;23.352;2023-04-16T12:59:41;7.45;;;2.00;;
41233;SDS011;26968;42.686;23.352;2023-04-16T13:02:07;7.38;;;2.15;;
41233;SDS011;26968;42.686;23.352;2023-04-16T13:04:32;5.15;;;2.08;;
41233;SDS011;26968;42.686;23.352;2023-04-16T13:06:58;11.55;;;1.92;;
41233;SDS011;26968;42.686;23.352;2023-04-16T13:09:23;6.13;;;1.58;;
41233;SDS011;26968;42.686;23.352;2023-04-16T13:11:50;4.53;;;1.70;;
41233;SDS011;26968;42.686;23.352;2023-04-16T13:14:15;6.55;;;2.33;;
41233;SDS011;26968;42.686;23.352;2023-04-16T13:16:40;4.75;;;2.08;;
41233;SDS011;26968;42.686;23.352;2023-04-16T13:19:06;7.78;;;2.47;;
41233;SDS011;26968;42.686;23.352;2023-04-16T13:21:32;7.28;;;2.55;;
41233;SDS011;26968;42.686;23.352;2023-04-16T13:23:58;5.82;;;2.38;;
41233;SDS011;26968;42.686;23.352;2023-04-16T13:26:23;6.60;;;2.40;;
41233;SDS011;26968;42.686;23.352;2023-04-16T13:28:49;7.93;;;2.63;;
41233;SDS011;26968;42.686;23.352;2023-04-16T13:31:14;9.75;;;2.42;;
41233;SDS011;26968;42.686;23.352;2023-04-16T13:33:43;9.50;;;3.15;;
41233;SDS011;26968;42.686;23.352;2023-04-16T13:36:09;10.65;;;2.92;;
41233;SDS011;26968;42.686;23.352;2023-04-16T13:38:35;7.60;;;2.65;;
41233;SDS011;26968;42.686;23.352;2023-04-16T13:41:00;7.57;;;2.65;;
41233;SDS011;26968;42.686;23.352;2023-04-16T13:43:26;8.25;;;2.70;;
41233;SDS011;26968;42.686;23.352;2023-04-16T13:45:51;6.50;;;2.08;;
41233;SDS011;26968;42.686;23.352;2023-04-16T13:48:17;6.35;;;2.03;;
41233;SDS011;26968;42.686;23.352;2023-04-16T13:50:42;6.18;;;2.08;;
41233;SDS011;26968;42.686;23.352;2023-04-16T13:53:08;7.15;;;2.33;;
41233;SDS011;26968;42.686;23.352;2023-04-16T13:55:33;6.10;;;2.40;;
41233;SDS011;26968;42.686;23.352;2023-04-16T13:57:59;6.60;;;1.92;;
41233;SDS011;26968;42.686;23.352;2023-04-16T14:00:25;4.35;;;2.40;;
41233;SDS011;26968;42.686;23.352;2023-04-16T14:02:51;6.82;;;2.05;;
41233;SDS011;26968;42.686;23.352;2023-04-16T14:05:17;5.45;;;1.88;;
41233;SDS011;26968;42.686;23.352;2023-04-16T14:07:43;3.72;;;1.95;;
41233;SDS011;26968;42.686;23.352;2023-04-16T14:10:09;6.80;;;2.25;;
41233;SDS011;26968;42.686;23.352;2023-04-16T14:12:35;7.32;;;2.15;;
41233;SDS011;26968;42.686;23.352;2023-04-16T14:15:02;6.50;;;2.30;;
41233;SDS011;26968;42.686;23.352;2023-04-16T14:17:28;5.00;;;1.92;;
41233;SDS011;26968;42.686;23.352;2023-04-16T14:19:54;6.25;;;2.33;;
41233;SDS011;26968;42.686;23.352;2023-04-16T14:22:19;10.65;;;3.17;;
41233;SDS011;26968;42.686;23.352;2023-04-16T14:24:45;9.75;;;3.38;;
41233;SDS011;26968;42.686;23.352;2023-04-16T14:27:10;8.75;;;3.90;;
41233;SDS011;26968;42.686;23.352;2023-04-16T14:29:36;5.70;;;2.70;;
41233;SDS011;26968;42.686;23.352;2023-04-16T14:32:02;6.85;;;3.00;;
41233;SDS011;26968;42.686;23.352;2023-04-16T14:34:27;7.78;;;2.95;;
41233;SDS011;26968;42.686;23.352;2023-04-16T14:36:53;4.32;;;2.60;;
41233;SDS011;26968;42.686;23.352;2023-04-16T14:39:19;7.88;;;2.58;;